createdAt,value
2022-10-22T00:00:46.905Z,88.90
2022-10-22T00:03:14.506Z,88.80
2022-10-22T00:05:41.927Z,88.30
2022-10-22T00:08:09.310Z,88.60
2022-10-22T00:10:39.427Z,88.50
2022-10-22T00:13:06.897Z,88.50
2022-10-22T00:15:34.298Z,88.20
2022-10-22T00:18:01.938Z,88.60
2022-10-22T00:20:29.379Z,88.60
2022-10-22T00:22:56.783Z,88.60
2022-10-22T00:25:23.905Z,88.70
2022-10-22T00:27:51.350Z,88.70
2022-10-22T00:30:19.021Z,88.70
2022-10-22T00:32:46.502Z,89.00
2022-10-22T00:35:14.396Z,88.90
2022-10-22T00:37:41.828Z,89.10
2022-10-22T00:40:10.043Z,88.90
2022-10-22T00:42:38.021Z,89.00
2022-10-22T00:45:20.938Z,89.10
2022-10-22T00:48:08.784Z,88.90
2022-10-22T00:50:44.755Z,89.10
2022-10-22T00:53:19.178Z,89.10
2022-10-22T00:55:51.511Z,89.10
2022-10-22T00:58:21.817Z,89.30
2022-10-22T01:00:49.288Z,89.10
2022-10-22T01:03:17.303Z,89.20
2022-10-22T01:05:59.372Z,89.20
2022-10-22T01:08:42.255Z,89.20
2022-10-22T01:11:15.540Z,89.10
2022-10-22T01:13:59.213Z,89.00
2022-10-22T01:16:36.881Z,89.30
2022-10-22T01:19:33.183Z,89.20
2022-10-22T01:22:17.815Z,89.20
2022-10-22T01:25:12.505Z,89.50
2022-10-22T01:28:08.000Z,89.40
2022-10-22T01:30:37.248Z,89.30
2022-10-22T01:33:09.583Z,89.30
2022-10-22T01:35:42.280Z,89.10
2022-10-22T01:38:16.906Z,89.60
2022-10-22T01:40:44.578Z,89.30
2022-10-22T01:43:12.067Z,89.60
2022-10-22T01:45:48.771Z,89.60
2022-10-22T01:48:41.331Z,89.70
2022-10-22T01:51:46.661Z,90.30
2022-10-22T01:54:38.851Z,90.50
2022-10-22T01:57:20.171Z,90.60
2022-10-22T01:59:54.027Z,90.50
2022-10-22T02:02:42.560Z,90.60
2022-10-22T02:05:12.744Z,90.60
2022-10-22T02:07:54.927Z,91.20
2022-10-22T02:10:24.332Z,91.40
2022-10-22T02:12:55.822Z,91.50
2022-10-22T02:15:26.422Z,91.40
2022-10-22T02:17:56.783Z,91.20
2022-10-22T02:20:32.711Z,91.10
2022-10-22T02:23:02.061Z,91.40
2022-10-22T02:25:35.018Z,91.20
2022-10-22T02:28:11.102Z,91.50
2022-10-22T02:30:39.944Z,91.70
2022-10-22T02:33:18.137Z,91.50
2022-10-22T02:35:46.900Z,91.30
2022-10-22T02:38:14.789Z,91.50
2022-10-22T02:40:42.234Z,91.30
2022-10-22T02:43:09.691Z,91.20
2022-10-22T02:45:38.032Z,91.20
2022-10-22T02:48:05.771Z,91.50
2022-10-22T02:50:33.191Z,91.40
2022-10-22T02:53:00.476Z,91.80
2022-10-22T02:55:27.833Z,92.00
2022-10-22T02:57:55.672Z,92.10
2022-10-22T03:00:23.330Z,92.30
2022-10-22T03:02:50.489Z,92.20
2022-10-22T03:05:17.976Z,92.30
2022-10-22T03:07:45.265Z,92.20
2022-10-22T03:10:12.673Z,92.40
2022-10-22T03:12:40.026Z,92.40
2022-10-22T03:15:07.701Z,92.50
2022-10-22T03:17:35.122Z,92.50
2022-10-22T03:20:02.585Z,92.40
2022-10-22T03:22:32.864Z,92.50
2022-10-22T03:25:04.509Z,92.60
2022-10-22T03:27:31.826Z,92.70
2022-10-22T03:30:00.185Z,92.80
2022-10-22T03:32:27.518Z,92.60
2022-10-22T03:34:54.806Z,92.60
2022-10-22T03:37:22.944Z,92.60
2022-10-22T03:39:50.521Z,93.00
2022-10-22T03:42:18.057Z,92.60
2022-10-22T03:44:45.528Z,92.70
2022-10-22T03:47:12.934Z,92.80
2022-10-22T03:49:40.272Z,93.00
2022-10-22T03:52:14.707Z,93.10
2022-10-22T03:54:42.832Z,93.20
2022-10-22T03:57:10.898Z,93.50
2022-10-22T03:59:40.590Z,93.20
2022-10-22T04:02:08.342Z,93.10
2022-10-22T04:04:36.822Z,93.30
2022-10-22T04:07:05.506Z,93.50
2022-10-22T04:09:33.822Z,93.70
2022-10-22T04:12:01.580Z,93.70
2022-10-22T04:14:28.984Z,94.00
2022-10-22T04:16:56.263Z,93.60
2022-10-22T04:19:23.457Z,93.80
2022-10-22T04:21:50.825Z,93.70
2022-10-22T04:24:18.154Z,93.80
2022-10-22T04:26:45.449Z,94.10
2022-10-22T04:29:15.979Z,94.10
2022-10-22T04:31:44.008Z,94.10
2022-10-22T04:34:11.385Z,94.00
2022-10-22T04:36:38.801Z,94.10
2022-10-22T04:39:06.486Z,94.20
2022-10-22T04:41:37.496Z,94.20
2022-10-22T04:44:06.075Z,94.30
2022-10-22T04:46:35.196Z,94.40
2022-10-22T04:49:04.326Z,94.40
2022-10-22T04:51:32.486Z,94.40
2022-10-22T04:54:00.082Z,94.50
2022-10-22T04:56:30.806Z,94.50
2022-10-22T04:59:06.151Z,94.50
2022-10-22T05:01:37.084Z,94.80
2022-10-22T05:04:09.436Z,94.70
2022-10-22T05:06:38.072Z,94.40
2022-10-22T05:09:08.866Z,94.40
2022-10-22T05:11:38.651Z,94.50
2022-10-22T05:14:08.117Z,94.70
2022-10-22T05:16:38.361Z,94.40
2022-10-22T05:19:06.837Z,94.50
2022-10-22T05:21:34.674Z,94.50
2022-10-22T05:24:02.117Z,94.70
2022-10-22T05:26:29.835Z,94.60
2022-10-22T05:28:57.522Z,94.60
2022-10-22T05:31:25.715Z,94.50
2022-10-22T05:33:53.112Z,94.70
2022-10-22T05:36:22.758Z,94.30
2022-10-22T05:38:50.593Z,94.50
2022-10-22T05:41:20.755Z,94.50
2022-10-22T05:43:48.312Z,94.00
2022-10-22T05:46:22.583Z,93.50
2022-10-22T05:48:56.632Z,92.60
2022-10-22T05:51:25.792Z,91.90
2022-10-22T05:53:58.881Z,91.10
2022-10-22T05:56:27.712Z,90.80
2022-10-22T05:58:56.634Z,90.70
2022-10-22T06:01:29.648Z,90.10
2022-10-22T06:03:59.512Z,89.80
2022-10-22T06:06:39.276Z,89.60
2022-10-22T06:09:29.806Z,89.50
2022-10-22T06:11:57.843Z,89.70
2022-10-22T06:14:26.206Z,89.40
2022-10-22T06:16:54.251Z,89.30
2022-10-22T06:19:25.923Z,89.30
2022-10-22T06:21:53.916Z,89.30
2022-10-22T06:24:21.734Z,89.30
2022-10-22T06:26:53.403Z,89.30
2022-10-22T06:29:21.192Z,89.10
2022-10-22T06:31:49.264Z,89.20
2022-10-22T06:34:19.162Z,88.80
2022-10-22T06:36:47.992Z,88.50
2022-10-22T06:39:17.177Z,88.60
2022-10-22T06:41:44.875Z,88.60
2022-10-22T06:44:16.847Z,88.80
2022-10-22T06:46:44.855Z,88.60
2022-10-22T06:49:16.127Z,88.80
2022-10-22T06:51:43.712Z,89.20
2022-10-22T06:54:11.611Z,89.10
2022-10-22T06:56:38.913Z,89.30
2022-10-22T06:59:06.243Z,89.20
2022-10-22T07:01:35.051Z,88.90
2022-10-22T07:04:03.096Z,88.30
2022-10-22T07:06:30.882Z,88.60
2022-10-22T07:08:59.935Z,88.80
2022-10-22T07:11:30.117Z,88.90
2022-10-22T07:13:59.592Z,92.40
2022-10-22T07:16:31.326Z,87.60
2022-10-22T07:19:04.167Z,86.70
2022-10-22T07:21:32.122Z,86.80
2022-10-22T07:23:59.637Z,87.00
2022-10-22T07:26:31.196Z,86.90
2022-10-22T07:28:59.800Z,87.30
2022-10-22T07:31:27.557Z,87.40
2022-10-22T07:33:54.956Z,87.50
2022-10-22T07:36:22.593Z,87.80
2022-10-22T07:38:57.758Z,87.50
2022-10-22T07:41:25.996Z,87.60
2022-10-22T07:43:53.516Z,86.90
2022-10-22T07:46:21.438Z,86.80
2022-10-22T07:48:49.166Z,86.80
2022-10-22T07:51:17.252Z,86.40
2022-10-22T07:53:44.636Z,86.30
2022-10-22T07:56:12.289Z,86.90
2022-10-22T07:58:39.961Z,86.50
2022-10-22T08:01:07.366Z,86.10
2022-10-22T08:03:35.284Z,85.70
2022-10-22T08:06:03.245Z,85.80
2022-10-22T08:08:31.144Z,85.60
2022-10-22T08:11:00.809Z,85.60
2022-10-22T08:13:30.910Z,85.30
2022-10-22T08:16:00.730Z,85.40
2022-10-22T08:18:28.531Z,85.20
2022-10-22T08:20:55.856Z,85.30
2022-10-22T08:23:27.479Z,84.80
2022-10-22T08:25:57.134Z,84.70
2022-10-22T08:28:24.782Z,84.70
2022-10-22T08:30:52.407Z,84.70
2022-10-22T08:33:21.091Z,84.40
2022-10-22T08:35:51.018Z,83.60
2022-10-22T08:38:18.909Z,83.80
2022-10-22T08:40:52.531Z,83.40
2022-10-22T08:43:47.174Z,82.80
2022-10-22T08:46:46.894Z,81.90
2022-10-22T08:49:22.205Z,83.40
2022-10-22T08:51:49.821Z,82.10
2022-10-22T08:54:51.169Z,81.90
2022-10-22T08:57:36.967Z,81.90
2022-10-22T09:00:36.778Z,81.60
2022-10-22T09:03:22.769Z,81.40
2022-10-22T09:06:15.046Z,81.00
2022-10-22T09:08:45.233Z,80.40
2022-10-22T09:11:33.206Z,81.10
2022-10-22T09:14:01.496Z,80.80
2022-10-22T09:16:53.124Z,80.20
2022-10-22T09:19:33.699Z,79.70
2022-10-22T09:22:24.868Z,80.00
2022-10-22T09:25:01.260Z,78.90
2022-10-22T09:27:31.527Z,79.70
2022-10-22T09:29:58.860Z,79.90
2022-10-22T09:32:26.533Z,80.10
2022-10-22T09:34:57.488Z,79.80
2022-10-22T09:37:30.110Z,80.30
2022-10-22T09:39:59.324Z,78.90
2022-10-22T09:42:26.779Z,79.20
2022-10-22T09:44:57.736Z,78.90
2022-10-22T09:47:43.421Z,78.80
2022-10-22T09:50:38.769Z,78.60
2022-10-22T09:53:21.489Z,78.70
2022-10-22T09:56:11.169Z,78.50
2022-10-22T09:58:49.561Z,78.10
2022-10-22T10:01:29.764Z,78.40
2022-10-22T10:04:09.411Z,78.20
2022-10-22T10:06:40.565Z,77.40
2022-10-22T10:09:17.975Z,77.50
2022-10-22T10:12:19.448Z,77.40
2022-10-22T10:15:22.264Z,77.30
2022-10-22T10:18:38.755Z,77.70
2022-10-22T10:21:47.605Z,77.50
2022-10-22T10:24:30.527Z,77.90
2022-10-22T10:27:31.365Z,77.80
2022-10-22T10:30:13.822Z,76.80
2022-10-22T10:32:59.152Z,76.70
2022-10-22T10:35:45.004Z,76.70
2022-10-22T10:38:34.302Z,76.10
2022-10-22T10:41:28.766Z,76.10
2022-10-22T10:44:21.166Z,76.20
2022-10-22T10:47:31.728Z,76.20
2022-10-22T10:50:28.004Z,76.50
2022-10-22T10:53:14.731Z,77.00
2022-10-22T10:55:53.815Z,77.20
2022-10-22T10:59:00.700Z,77.50
2022-10-22T11:02:06.815Z,77.30
2022-10-22T11:04:58.805Z,77.80
2022-10-22T11:07:35.336Z,77.70
2022-10-22T11:10:29.687Z,77.60
2022-10-22T11:13:06.300Z,77.20
2022-10-22T11:15:39.770Z,77.90
2022-10-22T11:19:04.970Z,79.30
2022-10-22T11:21:44.684Z,79.00
2022-10-22T11:24:11.926Z,78.60
2022-10-22T11:26:49.301Z,70.70
2022-10-22T11:29:27.210Z,71.80
2022-10-22T11:31:58.349Z,71.90
2022-10-22T11:34:36.406Z,73.00
2022-10-22T11:37:06.645Z,73.80
2022-10-22T11:39:49.649Z,74.40
2022-10-22T11:42:22.891Z,74.20
2022-10-22T11:45:02.765Z,74.30
2022-10-22T11:47:34.807Z,73.30
2022-10-22T11:50:25.549Z,74.70
2022-10-22T11:53:17.245Z,75.30
2022-10-22T11:55:49.969Z,75.30
2022-10-22T11:58:26.125Z,74.80
2022-10-22T12:00:53.445Z,75.10
2022-10-22T12:03:32.685Z,74.60
2022-10-22T12:06:12.410Z,75.30
2022-10-22T12:08:49.086Z,75.30
2022-10-22T12:11:24.809Z,75.40
2022-10-22T12:14:02.859Z,75.20
2022-10-22T12:17:01.734Z,75.90
2022-10-22T12:19:41.208Z,76.10
2022-10-22T12:22:13.686Z,75.30
2022-10-22T12:24:50.461Z,76.10
2022-10-22T12:27:23.450Z,76.00
2022-10-22T12:29:56.025Z,75.60
2022-10-22T12:32:24.500Z,75.50
2022-10-22T12:34:53.262Z,75.40
2022-10-22T12:37:21.130Z,75.20
2022-10-22T12:39:48.540Z,75.80
2022-10-22T12:42:18.310Z,75.70
2022-10-22T12:44:45.727Z,75.40
2022-10-22T12:47:18.005Z,75.60
2022-10-22T12:49:48.780Z,75.40
2022-10-22T12:52:23.805Z,75.80
2022-10-22T12:54:52.967Z,76.10
2022-10-22T12:57:21.291Z,76.70
2022-10-22T12:59:51.920Z,76.80
2022-10-22T13:02:27.691Z,77.10
2022-10-22T13:05:22.566Z,77.50
2022-10-22T13:07:53.010Z,77.70
2022-10-22T13:10:31.246Z,77.90
2022-10-22T13:12:59.407Z,78.10
2022-10-22T13:15:32.299Z,77.60
2022-10-22T13:18:22.658Z,77.80
2022-10-22T13:21:03.406Z,78.10
2022-10-22T13:23:33.507Z,78.70
2022-10-22T13:26:03.062Z,78.40
2022-10-22T13:28:32.570Z,78.80
2022-10-22T13:31:17.529Z,79.00
2022-10-22T13:33:48.051Z,78.90
2022-10-22T13:36:16.970Z,79.40
2022-10-22T13:38:45.607Z,79.60
2022-10-22T13:41:25.166Z,79.50
2022-10-22T13:43:53.566Z,79.80
2022-10-22T13:46:21.420Z,80.20
2022-10-22T13:48:50.376Z,79.90
2022-10-22T13:51:20.654Z,80.00
2022-10-22T13:53:49.691Z,80.00
2022-10-22T13:56:18.810Z,80.50
2022-10-22T13:58:47.016Z,80.20
2022-10-22T14:01:27.492Z,80.80
2022-10-22T14:04:02.215Z,80.80
2022-10-22T14:06:32.941Z,81.10
2022-10-22T14:09:05.833Z,81.20
2022-10-22T14:11:35.539Z,81.10
2022-10-22T14:14:09.296Z,81.10
2022-10-22T14:16:38.057Z,81.20
2022-10-22T14:19:10.742Z,81.40
2022-10-22T14:21:38.660Z,81.60
2022-10-22T14:24:08.360Z,86.10
2022-10-22T14:26:38.094Z,81.90
2022-10-22T14:29:09.929Z,75.30
2022-10-22T14:34:15.288Z,75.30
2022-10-22T14:36:46.026Z,76.40
2022-10-22T14:39:14.344Z,77.50
2022-10-22T14:41:42.881Z,78.20
2022-10-22T14:44:14.592Z,78.90
2022-10-22T14:46:44.559Z,79.60
2022-10-22T14:49:12.465Z,80.30
2022-10-22T14:51:39.906Z,80.70
2022-10-22T14:54:07.191Z,81.10
2022-10-22T14:56:34.829Z,81.50
2022-10-22T14:59:02.080Z,81.90
2022-10-22T15:01:29.542Z,82.30
2022-10-22T15:03:56.936Z,83.00
2022-10-22T15:06:24.185Z,83.60
2022-10-22T15:08:51.733Z,83.80
2022-10-22T15:11:19.308Z,84.40
2022-10-22T15:13:46.816Z,85.00
2022-10-22T15:16:16.700Z,85.20
2022-10-22T15:18:44.190Z,85.40
2022-10-22T15:21:20.256Z,85.50
2022-10-22T15:23:48.779Z,85.60
2022-10-22T15:26:16.968Z,85.90
2022-10-22T15:28:44.571Z,86.10
2022-10-22T15:31:14.822Z,86.60
2022-10-22T15:33:44.296Z,87.40
2022-10-22T15:36:14.810Z,88.30
2022-10-22T15:38:42.442Z,88.30
2022-10-22T15:41:12.253Z,88.80
2022-10-22T15:43:40.252Z,89.10
2022-10-22T15:46:19.228Z,89.00
2022-10-22T15:48:47.249Z,89.10
2022-10-22T15:51:18.303Z,89.30
2022-10-22T15:53:52.898Z,89.90
2022-10-22T15:56:22.222Z,90.40
2022-10-22T15:58:54.719Z,90.60
2022-10-22T16:01:22.533Z,90.60
2022-10-22T16:04:00.381Z,90.70
2022-10-22T16:06:48.568Z,90.70
2022-10-22T16:09:24.394Z,90.80
2022-10-22T16:14:26.122Z,90.60
2022-10-22T16:16:56.107Z,90.30
2022-10-22T16:19:24.652Z,90.50
2022-10-22T16:21:55.360Z,90.50
2022-10-22T16:24:23.517Z,90.60
2022-10-22T16:26:52.919Z,90.60
2022-10-22T16:29:20.549Z,90.70
2022-10-22T16:31:47.952Z,90.80
2022-10-22T16:34:15.366Z,90.90
2022-10-22T16:36:44.504Z,90.70
2022-10-22T16:39:11.996Z,90.50
2022-10-22T16:41:39.407Z,90.60
2022-10-22T16:44:08.985Z,90.50
2022-10-22T16:46:39.021Z,90.50
2022-10-22T16:49:08.094Z,90.50
2022-10-22T16:51:35.977Z,90.30
2022-10-22T16:54:05.592Z,90.30
2022-10-22T16:56:36.926Z,90.20
2022-10-22T16:59:04.360Z,90.40
2022-10-22T17:01:33.232Z,90.10
2022-10-22T17:04:03.122Z,90.40
2022-10-22T17:06:30.605Z,90.40
2022-10-22T17:08:58.144Z,90.60
2022-10-22T17:11:25.890Z,90.90
2022-10-22T17:13:54.727Z,91.10
2022-10-22T17:16:25.195Z,91.20
2022-10-22T17:18:55.099Z,91.10
2022-10-22T17:21:23.406Z,91.30
2022-10-22T17:23:55.980Z,91.30
2022-10-22T17:26:24.727Z,91.30
2022-10-22T17:28:52.146Z,91.20
2022-10-22T17:31:26.657Z,91.60
2022-10-22T17:33:56.186Z,91.60
2022-10-22T17:36:25.139Z,91.70
2022-10-22T17:38:55.264Z,91.60
2022-10-22T17:41:29.397Z,91.60
2022-10-22T17:43:59.622Z,91.80
2022-10-22T17:46:30.904Z,91.70
2022-10-22T17:49:03.846Z,91.50
2022-10-22T17:51:32.250Z,91.80
2022-10-22T17:54:00.281Z,91.70
2022-10-22T17:56:30.541Z,91.70
2022-10-22T17:59:00.098Z,91.90
2022-10-22T18:01:33.908Z,92.10
2022-10-22T18:04:04.024Z,92.20
2022-10-22T18:06:32.869Z,92.20
2022-10-22T18:09:00.336Z,92.40
2022-10-22T18:11:28.743Z,92.20
2022-10-22T18:13:58.411Z,92.20
2022-10-22T18:16:26.470Z,92.10
2022-10-22T18:18:56.473Z,92.20
2022-10-22T18:21:26.772Z,92.50
2022-10-22T18:23:54.667Z,92.50
2022-10-22T18:26:25.914Z,92.60
2022-10-22T18:28:55.064Z,92.70
2022-10-22T18:31:24.941Z,92.70
2022-10-22T18:36:27.366Z,92.70
2022-10-22T18:39:01.531Z,92.60
2022-10-22T18:41:30.686Z,92.20
2022-10-22T18:44:04.140Z,92.50
2022-10-22T18:46:34.961Z,92.50
2022-10-22T18:49:02.406Z,92.40
2022-10-22T18:51:32.000Z,92.50
2022-10-22T18:54:06.066Z,92.30
2022-10-22T18:56:47.371Z,92.20
2022-10-22T18:59:22.169Z,92.10
2022-10-22T19:01:49.663Z,92.00
2022-10-22T19:04:17.315Z,91.90
2022-10-22T19:06:46.013Z,91.80
2022-10-22T19:09:15.243Z,91.80
2022-10-22T19:11:46.724Z,91.80
2022-10-22T19:14:15.251Z,91.90
2022-10-22T19:16:42.814Z,92.00
2022-10-22T19:19:11.660Z,92.30
2022-10-22T19:21:39.062Z,92.70
2022-10-22T19:24:07.231Z,93.20
2022-10-22T19:26:34.901Z,93.00
2022-10-22T19:29:02.905Z,92.70
2022-10-22T19:31:31.546Z,92.50
2022-10-22T19:34:00.965Z,92.60
2022-10-22T19:36:30.545Z,92.50
2022-10-22T19:38:58.541Z,92.60
2022-10-22T19:41:27.585Z,92.50
2022-10-22T19:43:56.985Z,92.60
2022-10-22T19:46:26.021Z,92.70
2022-10-22T19:48:53.635Z,92.70
2022-10-22T19:51:23.061Z,92.60
2022-10-22T19:53:51.066Z,92.60
2022-10-22T19:56:21.186Z,93.00
2022-10-22T19:58:48.626Z,93.90
2022-10-22T20:01:18.129Z,94.50
2022-10-22T20:03:45.986Z,94.10
2022-10-22T20:06:15.953Z,93.30
2022-10-22T20:08:43.696Z,93.20
2022-10-22T20:11:22.078Z,93.50
2022-10-22T20:13:52.235Z,93.20
2022-10-22T20:16:23.313Z,93.70
2022-10-22T20:18:52.067Z,94.10
2022-10-22T20:21:20.270Z,94.30
2022-10-22T20:23:51.424Z,94.10
2022-10-22T20:26:18.995Z,94.30
2022-10-22T20:28:46.386Z,94.40
2022-10-22T20:31:19.394Z,94.40
2022-10-22T20:33:48.140Z,94.10
2022-10-22T20:36:21.620Z,93.90
2022-10-22T20:38:49.702Z,94.20
2022-10-22T20:41:22.514Z,94.40
2022-10-22T20:43:51.583Z,94.30
2022-10-22T20:46:21.425Z,94.30
2022-10-22T20:48:51.706Z,94.20
2022-10-22T20:51:19.424Z,94.00
2022-10-22T20:53:46.900Z,94.10
2022-10-22T20:56:14.906Z,93.80
2022-10-22T20:58:48.164Z,93.80
2022-10-22T21:01:24.487Z,93.60
2022-10-22T21:03:53.024Z,93.40
2022-10-22T21:06:23.491Z,93.50
2022-10-22T21:08:51.872Z,93.30
2022-10-22T21:11:20.759Z,93.10
2022-10-22T21:13:48.154Z,93.30
2022-10-22T21:16:17.780Z,93.10
2022-10-22T21:18:46.505Z,93.40
2022-10-22T21:21:14.434Z,92.90
2022-10-22T21:23:41.834Z,93.10
2022-10-22T21:26:09.254Z,93.30
2022-10-22T21:28:37.514Z,93.10
2022-10-22T21:31:07.781Z,93.60
2022-10-22T21:33:40.270Z,93.40
2022-10-22T21:36:09.547Z,93.60
2022-10-22T21:38:37.962Z,94.00
2022-10-22T21:41:11.000Z,95.10
2022-10-22T21:43:40.440Z,95.50
2022-10-22T21:46:10.080Z,95.60
2022-10-22T21:48:39.081Z,95.00
2022-10-22T21:51:11.796Z,94.90
2022-10-22T21:53:40.026Z,94.70
2022-10-22T21:56:08.716Z,94.60
2022-10-22T21:58:36.485Z,94.60
2022-10-22T22:01:04.166Z,94.70
2022-10-22T22:03:31.650Z,94.70
2022-10-22T22:06:04.527Z,95.00
2022-10-22T22:08:33.586Z,94.90
2022-10-22T22:11:03.514Z,94.90
2022-10-22T22:13:31.928Z,95.30
2022-10-22T22:16:07.851Z,95.60
2022-10-22T22:18:37.125Z,95.40
2022-10-22T22:21:07.421Z,95.50
2022-10-22T22:23:38.161Z,95.60
2022-10-22T22:26:06.245Z,95.60
2022-10-22T22:28:34.246Z,96.00
2022-10-22T22:31:02.246Z,95.80
2022-10-22T22:33:30.157Z,96.00
2022-10-22T22:36:00.451Z,96.30
2022-10-22T22:38:28.361Z,96.20
2022-10-22T22:40:58.996Z,96.20
2022-10-22T22:43:28.241Z,95.90
2022-10-22T22:46:04.091Z,95.90
2022-10-22T22:48:32.450Z,95.60
2022-10-22T22:51:00.401Z,95.60
2022-10-22T22:53:28.948Z,95.60
2022-10-22T22:56:18.331Z,95.70
2022-10-22T22:58:46.056Z,95.60
2022-10-22T23:01:17.801Z,95.60
2022-10-22T23:03:47.477Z,95.40
2022-10-22T23:06:15.808Z,95.10
2022-10-22T23:08:44.417Z,95.30
2022-10-22T23:11:14.118Z,95.40
2022-10-22T23:13:43.320Z,95.20
2022-10-22T23:16:20.557Z,95.20
2022-10-22T23:18:50.013Z,95.30
2022-10-22T23:21:19.601Z,95.60
2022-10-22T23:23:49.916Z,95.60
2022-10-22T23:26:23.281Z,95.30
2022-10-22T23:28:51.320Z,95.50
2022-10-22T23:31:20.532Z,95.50
2022-10-22T23:33:48.805Z,95.50
2022-10-22T23:36:16.317Z,95.50
2022-10-22T23:38:44.276Z,95.30
2022-10-22T23:41:11.650Z,95.40
2022-10-22T23:43:39.345Z,95.30
2022-10-22T23:46:08.601Z,95.40
2022-10-22T23:48:36.881Z,95.50
2022-10-22T23:51:10.011Z,95.50
2022-10-22T23:53:37.965Z,95.40
2022-10-22T23:56:11.201Z,95.20
2022-10-22T23:58:39.443Z,95.20
